»·PEaware :: BOXED15 KEND-KEND

BOXED15 :: KEND-KEND

FLIGHT INFORMATION

Flight Status: Arrived
Operator: Unknown
More flights by this operator :: More flights under this callsign
Pilot: Peyton C. (22177)
Aircraft: BEECH AIRCRAFT T-6A TEXAN
(TEX2)
More flights by this aircraft type
Origin: KEND Vance AFB
United States
Destination: KEND Vance AFB
United States
More flights between these airports :: More routes between these airports
Route: +END8 PNC F22
File this flight plan on PilotEdge
Remarks:
Altitude:
(Current/Filed)
0ft
Speed:
(Current/Filed)
0kts
Departed: 26-Mar-20 07:29 AM
Arrived: 26-Mar-20 08:21 AM
Distance/Time
Traveled:
1nm/0:52
Distance/Time
To Go:
Arrived

Flight Plot

Page will automatically refresh every two minutes.


Map Options




Map Legend


Flown Route
Filed Route
Departure Airport
Arrival Airport
Navaid (VOR, NDB)
Fix

Horizontal Profiles

Position Reports

Time Latitude Longitude Heading Altitude Ground
Speed
26-Mar-20 07:14 36.346971 -97.909990 217 1279ft 0kts
26-Mar-20 07:15 36.346971 -97.909990 217 1279ft 0kts
26-Mar-20 07:17 36.346920 -97.910041 231 1279ft 4kts
26-Mar-20 07:18 36.346899 -97.910085 240 1279ft 0kts
26-Mar-20 07:19 36.346899 -97.910085 240 1279ft 0kts
26-Mar-20 07:20 36.346899 -97.910085 240 1279ft 0kts
26-Mar-20 07:21 36.346899 -97.910085 240 1279ft 0kts
26-Mar-20 07:22 36.346899 -97.910085 240 1279ft 0kts
26-Mar-20 07:23 36.346899 -97.910085 240 1279ft 0kts
26-Mar-20 07:24 36.346899 -97.910085 240 1279ft 0kts
26-Mar-20 07:25 36.346899 -97.910085 240 1279ft 0kts
26-Mar-20 07:26 36.346899 -97.910085 240 1279ft 0kts
26-Mar-20 07:27 36.346763 -97.911015 215 1279ft 7kts
26-Mar-20 07:28 36.346657 -97.911052 182 1279ft 0kts
26-Mar-20 07:29 36.336442 -97.910855 179 1451ft 135kts
26-Mar-20 07:30 36.287489 -97.901913 172 3617ft 187kts
26-Mar-20 07:31 36.234240 -97.882543 136 5023ft 233kts
26-Mar-20 07:32 36.239246 -97.804826 63 5267ft 235kts
26-Mar-20 07:33 36.269265 -97.728328 66 4964ft 246kts
26-Mar-20 07:34 36.291789 -97.654181 70 5828ft 225kts
26-Mar-20 07:34 36.310332 -97.586880 65 5277ft 252kts
26-Mar-20 07:36 36.351892 -97.503092 54 5221ft 268kts
26-Mar-20 07:37 36.383081 -97.426653 57 5806ft 249kts
26-Mar-20 07:38 36.430554 -97.362778 26 5425ft 261kts
26-Mar-20 07:38 36.488528 -97.329347 25 4917ft 302kts
26-Mar-20 07:39 36.555522 -97.275676 39 5227ft 298kts
26-Mar-20 07:40 36.622423 -97.216743 16 5038ft 291kts
26-Mar-20 07:41 36.688454 -97.170024 51 4796ft 262kts
26-Mar-20 07:43 36.741332 -97.109722 0 2460ft 148kts
26-Mar-20 07:43 36.737238 -97.098292 191 1187ft 138kts
26-Mar-20 07:44 36.711593 -97.124740 326 2986ft 201kts
26-Mar-20 07:45 36.760286 -97.114278 55 2703ft 139kts
26-Mar-20 07:46 36.732099 -97.099562 176 1116ft 126kts
26-Mar-20 07:47 36.694715 -97.128291 213 1460ft 237kts
26-Mar-20 07:48 36.639702 -97.159667 204 4352ft 211kts
26-Mar-20 07:49 36.589986 -97.188915 213 5014ft 161kts
26-Mar-20 07:50 36.555425 -97.219691 224 4559ft 144kts
26-Mar-20 07:51 36.520262 -97.252242 218 4563ft 156kts
26-Mar-20 07:52 36.516135 -97.252235 272 4835ft 152kts
26-Mar-20 07:53 36.467733 -97.273732 195 3366ft 233kts
26-Mar-20 07:54 36.413579 -97.277082 181 1707ft 149kts
26-Mar-20 07:55 36.377723 -97.277043 178 1299ft 156kts
26-Mar-20 07:56 36.399796 -97.290166 7 2449ft 245kts
26-Mar-20 07:57 36.383553 -97.277272 179 1062ft 213kts
26-Mar-20 07:58 36.378934 -97.257873 0 2402ft 150kts
26-Mar-20 07:59 36.405074 -97.283706 288 4256ft 137kts
26-Mar-20 08:00 36.424085 -97.326853 289 5456ft 173kts
26-Mar-20 08:01 36.447654 -97.388020 279 5392ft 211kts
26-Mar-20 08:02 36.442328 -97.462061 274 4187ft 189kts
26-Mar-20 08:03 36.437541 -97.518197 254 4717ft 136kts
26-Mar-20 08:04 36.409742 -97.557264 185 6002ft 199kts
26-Mar-20 08:05 36.382865 -97.598626 295 6131ft 200kts
26-Mar-20 08:06 36.387251 -97.659849 265 6081ft 167kts
26-Mar-20 08:07 36.397207 -97.711265 338 5960ft 176kts
26-Mar-20 08:08 36.446820 -97.714328 356 6007ft 178kts
26-Mar-20 08:09 36.496145 -97.714800 356 6055ft 177kts
26-Mar-20 08:10 36.546027 -97.715376 357 5970ft 183kts
26-Mar-20 08:11 36.590621 -97.733971 278 5280ft 180kts
26-Mar-20 08:12 36.557783 -97.799317 229 3075ft 249kts
26-Mar-20 08:13 36.504681 -97.848297 213 2475ft 214kts
26-Mar-20 08:14 36.474306 -97.904400 198 2186ft 174kts
26-Mar-20 08:15 36.429513 -97.906861 183 2420ft 156kts
26-Mar-20 08:16 36.384663 -97.910192 182 2336ft 164kts
26-Mar-20 08:17 36.339208 -97.909210 152 2433ft 160kts
26-Mar-20 08:18 36.361862 -97.904297 242 1821ft 135kts
26-Mar-20 08:19 36.336466 -97.910898 180 1289ft 42kts
26-Mar-20 08:20 36.334588 -97.908939 47 1293ft 9kts
26-Mar-20 08:21 36.334588 -97.908939 47 1293ft 9kts
26-Mar-20 08:22 36.334588 -97.908939 47 1293ft 9kts
26-Mar-20 08:23 36.346971 -97.909990 217 1279ft 0kts
26-Mar-20 08:24 36.346971 -97.909990 217 1279ft 0kts
26-Mar-20 08:25 36.346971 -97.909990 217 1279ft 0kts
26-Mar-20 08:26 36.346971 -97.909990 217 1279ft 0kts
26-Mar-20 08:27 36.346971 -97.909990 217 1279ft 0kts
26-Mar-20 08:28 36.346971 -97.909990 217 1279ft 0kts
26-Mar-20 08:29 36.346971 -97.909990 217 1279ft 0kts
26-Mar-20 08:30 36.346971 -97.909990 217 1279ft 0kts
26-Mar-20 08:31 36.346971 -97.909990 217 1279ft 0kts
26-Mar-20 08:32 36.346971 -97.909990 216 1279ft 0kts

Navigation Log

Ident Type
Flight plan parsing failed, navigation log unavailable